createdAt,value
2022-12-23T16:18:32.592Z,13.44
2022-12-23T16:19:32.531Z,13.37
2022-12-23T16:20:32.521Z,13.24
2022-12-23T16:21:32.515Z,13.07
2022-12-23T16:22:32.524Z,13.18
2022-12-23T16:23:32.491Z,13.07
2022-12-23T16:24:32.473Z,13.14
2022-12-23T16:25:32.480Z,13.21
2022-12-23T16:26:32.465Z,13.27
2022-12-23T16:27:32.461Z,13.25
2022-12-23T16:28:32.481Z,13.38
2022-12-23T16:29:32.427Z,13.27
2022-12-23T16:30:32.441Z,13.22
2022-12-23T16:31:32.509Z,13.37
2022-12-23T16:32:32.472Z,13.27
2022-12-23T16:33:32.408Z,13.36
2022-12-23T16:34:32.432Z,13.37
2022-12-23T16:35:32.353Z,13.27
2022-12-23T16:36:32.480Z,13.33
2022-12-23T16:37:32.359Z,13.15
2022-12-23T16:38:32.355Z,13.15
2022-12-23T16:39:32.377Z,13.09
2022-12-23T16:40:32.293Z,13.15
2022-12-23T16:41:32.297Z,13.11
2022-12-23T16:42:32.284Z,12.87
2022-12-23T16:43:32.265Z,12.89
2022-12-23T16:44:32.271Z,12.96
2022-12-23T16:45:32.278Z,12.99
2022-12-23T16:46:32.366Z,13.03
2022-12-23T16:47:32.228Z,13.07
2022-12-23T16:48:32.198Z,13.22
2022-12-23T16:49:33.751Z,13.32
2022-12-23T16:50:32.213Z,13.36
2022-12-23T16:51:32.178Z,13.36
2022-12-23T16:52:32.162Z,13.38
2022-12-23T16:53:32.153Z,13.40
2022-12-23T16:54:32.138Z,13.41
2022-12-23T16:55:32.154Z,13.25
2022-12-23T16:56:32.132Z,13.40
2022-12-23T16:57:32.160Z,13.33
2022-12-23T16:58:32.083Z,13.33
2022-12-23T16:59:32.072Z,13.41
2022-12-23T17:00:32.071Z,13.29
2022-12-23T17:01:32.118Z,13.25
2022-12-23T17:02:32.091Z,13.51
2022-12-23T17:03:32.026Z,13.43
2022-12-23T17:04:32.030Z,13.52
2022-12-23T17:05:32.010Z,13.46
2022-12-23T17:06:31.999Z,13.55
2022-12-23T17:07:32.029Z,13.56
2022-12-23T17:08:32.009Z,13.46
2022-12-23T17:09:31.964Z,13.65
2022-12-23T17:10:32.089Z,13.62
2022-12-23T17:11:31.936Z,13.70
2022-12-23T17:12:31.957Z,13.76
2022-12-23T17:13:33.220Z,13.77
2022-12-23T17:14:31.923Z,13.76
2022-12-23T17:15:31.900Z,13.56
2022-12-23T17:16:31.937Z,13.63
2022-12-23T17:17:31.907Z,13.83
2022-12-23T17:18:31.885Z,14.01
2022-12-23T17:19:31.851Z,13.99
2022-12-23T17:20:32.524Z,13.91
2022-12-23T17:21:31.846Z,14.06
2022-12-23T17:22:31.816Z,14.06
2022-12-23T17:23:31.792Z,14.06
2022-12-23T17:24:31.829Z,14.01
2022-12-23T17:25:31.785Z,14.12
2022-12-23T17:26:31.764Z,14.07
2022-12-23T17:27:31.745Z,14.01
2022-12-23T17:28:31.742Z,14.02
2022-12-23T17:29:31.727Z,14.16
2022-12-23T17:30:31.733Z,14.16
2022-12-23T17:31:31.737Z,13.88
2022-12-23T17:32:31.840Z,13.81
2022-12-23T17:33:31.673Z,14.02
2022-12-23T17:34:31.672Z,13.89
2022-12-23T17:35:31.666Z,13.94
2022-12-23T17:36:31.805Z,13.99
2022-12-23T17:37:31.639Z,13.98
2022-12-23T17:38:31.643Z,14.07
2022-12-23T17:39:31.617Z,14.10
2022-12-23T17:40:31.605Z,13.94
2022-12-23T17:41:31.576Z,14.07
2022-12-23T17:42:31.605Z,14.12
2022-12-23T17:43:31.563Z,14.01
2022-12-23T17:44:31.557Z,13.89
2022-12-23T17:45:31.572Z,13.76
2022-12-23T17:46:31.570Z,13.87
2022-12-23T17:47:31.545Z,13.98
2022-12-23T17:48:32.020Z,13.88
2022-12-23T17:49:31.501Z,13.92
2022-12-23T17:50:31.495Z,13.95
2022-12-23T17:51:31.476Z,13.89
2022-12-23T17:52:31.469Z,13.77
2022-12-23T17:53:31.469Z,13.67
2022-12-23T17:54:31.427Z,13.59
2022-12-23T17:55:31.427Z,13.63
2022-12-23T17:56:31.425Z,13.67
2022-12-23T17:57:31.425Z,13.51
2022-12-23T17:58:31.383Z,13.67
2022-12-23T17:59:31.404Z,13.76
2022-12-23T18:00:34.417Z,13.76
2022-12-23T18:01:31.428Z,13.81
2022-12-23T18:02:31.390Z,13.98
2022-12-23T18:03:31.335Z,13.80
2022-12-23T18:04:31.320Z,13.83
2022-12-23T18:05:31.329Z,13.76
2022-12-23T18:06:31.424Z,13.69
2022-12-23T18:07:31.284Z,13.76
2022-12-23T18:08:31.296Z,13.84
2022-12-23T18:09:31.253Z,13.87
2022-12-23T18:10:31.251Z,14.02
2022-12-23T18:11:31.251Z,14.16
2022-12-23T18:12:31.233Z,13.99
2022-12-23T18:13:31.214Z,14.12
2022-12-23T18:14:31.222Z,13.94
2022-12-23T18:15:31.184Z,13.91
2022-12-23T18:16:31.291Z,14.17
2022-12-23T18:17:31.161Z,14.13
2022-12-23T18:18:41.792Z,14.02
2022-12-23T18:19:32.161Z,14.20
2022-12-23T18:20:31.222Z,14.02
2022-12-23T18:21:31.125Z,14.02
2022-12-23T18:22:31.223Z,13.89
2022-12-23T18:23:31.191Z,14.02
2022-12-23T18:24:31.099Z,13.83
2022-12-23T18:25:31.071Z,13.76
2022-12-23T18:26:31.056Z,13.95
2022-12-23T18:27:31.042Z,14.13
2022-12-23T18:28:31.087Z,14.06
2022-12-23T18:29:31.021Z,14.09
2022-12-23T18:30:31.057Z,14.21
2022-12-23T18:31:31.070Z,14.25
2022-12-23T18:32:30.993Z,14.13
2022-12-23T18:33:30.988Z,14.17
2022-12-23T18:34:30.992Z,14.27
2022-12-23T18:35:30.957Z,14.19
2022-12-23T18:36:31.034Z,13.95
2022-12-23T18:37:30.945Z,13.95
2022-12-23T18:38:30.932Z,14.02
2022-12-23T18:39:30.942Z,14.25
2022-12-23T18:40:32.892Z,14.27
2022-12-23T18:41:30.891Z,14.46
2022-12-23T18:42:30.868Z,14.49
2022-12-23T18:43:30.885Z,14.28
2022-12-23T18:44:30.882Z,14.35
2022-12-23T18:45:30.874Z,14.28
2022-12-23T18:46:30.834Z,14.17
2022-12-23T18:47:30.808Z,14.28
2022-12-23T18:48:30.796Z,14.42
2022-12-23T18:49:30.786Z,14.52
2022-12-23T18:50:30.785Z,14.54
2022-12-23T18:51:30.795Z,14.75
2022-12-23T18:52:30.748Z,14.90
2022-12-23T18:53:30.759Z,14.72
2022-12-23T18:54:30.740Z,14.75
2022-12-23T18:55:30.741Z,14.57
2022-12-23T18:56:30.722Z,14.31
2022-12-23T18:57:30.708Z,14.50
2022-12-23T18:58:30.677Z,14.72
2022-12-23T18:59:30.670Z,14.88
2022-12-23T19:00:30.689Z,14.75
2022-12-23T19:01:30.717Z,14.88
2022-12-23T19:02:30.664Z,15.03
2022-12-23T19:03:30.646Z,14.71
2022-12-23T19:04:30.610Z,14.78
2022-12-23T19:05:30.604Z,14.67
2022-12-23T19:06:30.599Z,14.65
2022-12-23T19:07:30.595Z,14.60
2022-12-23T19:08:30.573Z,14.69
2022-12-23T19:09:30.582Z,14.87
2022-12-23T19:10:30.545Z,14.94
2022-12-23T19:11:30.542Z,15.21
2022-12-23T19:12:30.519Z,15.20
2022-12-23T19:13:30.537Z,15.12
2022-12-23T19:14:30.491Z,15.05
2022-12-23T19:15:30.554Z,14.54
2022-12-23T19:16:31.019Z,14.86
2022-12-23T19:17:30.496Z,14.83
2022-12-23T19:18:30.442Z,15.06
2022-12-23T19:19:30.448Z,14.75
2022-12-23T19:20:30.440Z,14.87
2022-12-23T19:21:30.412Z,14.91
2022-12-23T19:22:30.413Z,14.87
2022-12-23T19:23:30.419Z,14.81
2022-12-23T19:24:30.374Z,14.67
2022-12-23T19:25:30.427Z,14.86
2022-12-23T19:26:30.373Z,15.02
2022-12-23T19:27:30.375Z,14.75
2022-12-23T19:28:30.362Z,14.67
2022-12-23T19:29:30.323Z,14.60
2022-12-23T19:30:30.395Z,14.75
2022-12-23T19:31:30.447Z,14.74
2022-12-23T19:32:30.290Z,14.67
2022-12-23T19:33:30.272Z,14.90
2022-12-23T19:34:30.255Z,14.56
2022-12-23T19:35:30.265Z,14.57
2022-12-23T19:36:30.330Z,14.67
2022-12-23T19:37:30.266Z,14.91
2022-12-23T19:38:30.215Z,14.81
2022-12-23T19:39:30.231Z,15.11
2022-12-23T19:40:30.189Z,15.17
2022-12-23T19:41:30.176Z,14.95
2022-12-23T19:42:30.174Z,14.95
2022-12-23T19:43:30.171Z,15.05
2022-12-23T19:44:30.161Z,15.24
2022-12-23T19:45:30.163Z,15.28
2022-12-23T19:46:30.253Z,15.24
2022-12-23T19:47:30.106Z,15.15
2022-12-23T19:48:30.108Z,14.75
2022-12-23T19:49:30.117Z,14.46
2022-12-23T19:50:30.068Z,14.81
2022-12-23T19:51:30.057Z,15.21
2022-12-23T19:52:30.061Z,15.43
2022-12-23T19:53:30.032Z,15.23
2022-12-23T19:54:30.034Z,14.80
2022-12-23T19:55:30.039Z,14.88
2022-12-23T19:56:30.044Z,15.01
2022-12-23T19:57:29.993Z,15.27
2022-12-23T19:58:29.992Z,15.41
2022-12-23T19:59:29.960Z,15.12
2022-12-23T20:00:29.951Z,14.98
2022-12-23T20:01:30.010Z,14.94
2022-12-23T20:02:29.978Z,15.01
2022-12-23T20:03:30.008Z,14.99
2022-12-23T20:04:29.906Z,14.54
2022-12-23T20:05:29.945Z,14.64
2022-12-23T20:06:29.893Z,14.72
2022-12-23T20:07:29.913Z,14.86
2022-12-23T20:08:29.861Z,14.86
2022-12-23T20:09:29.851Z,14.78
2022-12-23T20:10:29.835Z,14.71
2022-12-23T20:11:29.858Z,14.81
2022-12-23T20:12:29.818Z,14.74
2022-12-23T20:13:29.827Z,14.84
2022-12-23T20:14:33.791Z,14.67
2022-12-23T20:15:29.858Z,14.61
2022-12-23T20:16:29.811Z,14.75
2022-12-23T20:17:29.800Z,14.88
2022-12-23T20:18:29.773Z,14.93
2022-12-23T20:19:29.733Z,14.87
2022-12-23T20:20:29.727Z,14.78
2022-12-23T20:21:29.718Z,14.74
2022-12-23T20:22:29.701Z,14.75
2022-12-23T20:23:29.697Z,14.91
2022-12-23T20:24:29.727Z,15.06
2022-12-23T20:25:29.697Z,15.23
2022-12-23T20:26:29.650Z,14.99
2022-12-23T20:27:29.632Z,14.99
2022-12-23T20:28:29.632Z,14.95
2022-12-23T20:29:29.626Z,15.09
2022-12-23T20:30:29.678Z,14.99
2022-12-23T20:31:29.695Z,14.78
2022-12-23T20:32:29.576Z,14.80
2022-12-23T20:33:29.584Z,14.78
2022-12-23T20:34:33.270Z,14.87
2022-12-23T20:35:30.597Z,14.88
2022-12-23T20:36:29.676Z,14.74
2022-12-23T20:37:29.547Z,14.84
2022-12-23T20:38:29.518Z,14.93
2022-12-23T20:39:29.525Z,15.02
2022-12-23T20:40:29.499Z,14.94
2022-12-23T20:41:29.506Z,14.90
2022-12-23T20:42:29.512Z,14.65
2022-12-23T20:43:29.457Z,14.74
2022-12-23T20:44:34.940Z,14.62
2022-12-23T20:45:30.440Z,14.50
2022-12-23T20:46:29.477Z,14.50
2022-12-23T20:47:29.431Z,14.46
2022-12-23T20:48:33.759Z,14.44
2022-12-23T20:49:30.415Z,14.57
2022-12-23T20:50:29.389Z,14.72
2022-12-23T20:56:26.025Z,12.08
2022-12-23T20:57:25.989Z,12.97
2022-12-23T20:58:26.002Z,13.41
2022-12-23T20:59:25.971Z,13.65
2022-12-23T21:00:25.949Z,13.95
2022-12-23T21:01:25.964Z,14.12
2022-12-23T21:02:25.989Z,14.09
2022-12-23T21:03:25.950Z,14.21
2022-12-23T21:04:25.929Z,14.46
2022-12-23T21:05:25.901Z,14.43
2022-12-23T21:06:25.902Z,14.27
2022-12-23T21:07:25.880Z,14.17
2022-12-23T21:08:25.864Z,14.04
2022-12-23T21:09:25.868Z,14.28
2022-12-23T21:10:25.869Z,14.35
2022-12-23T21:11:25.839Z,14.49
2022-12-23T21:12:25.824Z,14.53
2022-12-23T21:13:25.813Z,14.64
2022-12-23T21:14:25.830Z,14.75
2022-12-23T21:15:25.810Z,14.78
2022-12-23T21:16:25.818Z,14.72
2022-12-23T21:17:25.773Z,14.60
2022-12-23T21:18:25.791Z,14.35
2022-12-23T21:19:25.745Z,14.49
2022-12-23T21:20:25.752Z,14.56
2022-12-23T21:21:25.719Z,14.64
2022-12-23T21:22:25.729Z,14.69
2022-12-23T21:23:25.688Z,14.62
2022-12-23T21:24:25.718Z,14.80
2022-12-23T21:25:25.664Z,14.72
2022-12-23T21:26:25.693Z,14.61
2022-12-23T21:27:25.653Z,14.52
2022-12-23T21:28:25.634Z,14.53
2022-12-23T21:29:25.623Z,14.72
2022-12-23T21:30:25.646Z,14.69
2022-12-23T21:31:25.628Z,14.68
2022-12-23T21:32:25.610Z,14.39
2022-12-23T21:33:25.585Z,14.61
2022-12-23T21:34:25.555Z,14.87
2022-12-23T21:35:25.567Z,15.05
2022-12-23T21:36:25.622Z,14.86
2022-12-23T21:37:25.542Z,14.53
2022-12-23T21:38:25.535Z,14.38
2022-12-23T21:39:25.502Z,14.72
2022-12-23T21:40:25.512Z,14.67
2022-12-23T21:41:25.478Z,14.62
2022-12-23T21:42:25.467Z,14.39
2022-12-23T21:43:25.479Z,14.72
2022-12-23T21:44:25.539Z,15.08
2022-12-23T21:45:25.428Z,15.13
2022-12-23T21:46:25.585Z,14.90
2022-12-23T21:47:25.419Z,14.44
2022-12-23T21:48:25.407Z,14.50
2022-12-23T21:49:25.389Z,14.38
2022-12-23T21:50:25.433Z,14.27
2022-12-23T21:51:25.358Z,14.19
2022-12-23T21:52:25.349Z,14.46
2022-12-23T21:53:25.353Z,14.61
2022-12-23T21:54:25.329Z,14.60
2022-12-23T21:55:25.317Z,14.56
2022-12-23T21:56:25.345Z,14.80
2022-12-23T21:57:25.279Z,14.80
2022-12-23T21:58:25.272Z,14.65
2022-12-23T21:59:29.671Z,14.65
2022-12-23T22:00:26.276Z,14.54
2022-12-23T22:01:25.280Z,14.37
2022-12-23T22:02:25.294Z,14.19
2022-12-23T22:03:25.220Z,14.42
2022-12-23T22:04:25.223Z,14.09
2022-12-23T22:05:25.193Z,14.17
2022-12-23T22:06:25.194Z,14.25
2022-12-23T22:07:25.227Z,14.44
2022-12-23T22:08:25.160Z,14.53
2022-12-23T22:09:25.153Z,14.47
2022-12-23T22:10:25.158Z,14.46
2022-12-23T22:11:25.123Z,14.54
2022-12-23T22:12:25.132Z,14.65
2022-12-23T22:13:25.129Z,14.38
2022-12-23T22:14:25.093Z,14.46
2022-12-23T22:15:25.073Z,14.43
2022-12-23T22:16:25.099Z,14.35
2022-12-23T22:17:25.057Z,14.31
2022-12-23T22:18:25.042Z,14.34
2022-12-23T22:19:25.051Z,14.49
2022-12-23T22:20:25.037Z,14.37
2022-12-23T22:21:25.015Z,14.60
2022-12-23T22:22:24.994Z,14.56
2022-12-23T22:23:24.991Z,14.35
2022-12-23T22:24:24.972Z,13.96
2022-12-23T22:25:25.072Z,14.09
2022-12-23T22:26:26.074Z,14.09
2022-12-23T22:27:24.952Z,14.07
2022-12-23T22:28:24.934Z,13.95
2022-12-23T22:29:24.933Z,14.13
2022-12-23T22:30:24.897Z,14.42
2022-12-23T22:31:25.006Z,14.35
2022-12-23T22:32:24.890Z,14.50
2022-12-23T22:33:24.876Z,14.57
2022-12-23T22:34:24.878Z,14.39
2022-12-23T22:35:24.850Z,14.49
2022-12-23T22:36:24.913Z,14.28
2022-12-23T22:37:24.852Z,14.32
2022-12-23T22:38:24.837Z,14.29
2022-12-23T22:39:24.795Z,14.39
2022-12-23T22:40:24.787Z,14.28
2022-12-23T22:41:24.765Z,14.16
2022-12-23T22:42:24.809Z,14.14
2022-12-23T22:43:24.745Z,13.92
2022-12-23T22:44:24.754Z,13.83
2022-12-23T22:45:24.790Z,14.01
2022-12-23T22:46:24.869Z,14.06
2022-12-23T22:47:24.713Z,14.13
2022-12-23T22:48:24.722Z,14.29
2022-12-23T22:49:24.687Z,14.39
2022-12-23T22:50:24.687Z,14.47
2022-12-23T22:51:24.696Z,14.10
2022-12-23T22:52:24.647Z,13.92
2022-12-23T22:53:29.477Z,13.92
2022-12-23T22:54:25.662Z,14.14
2022-12-23T22:55:24.611Z,14.24
2022-12-23T22:56:24.631Z,14.27
2022-12-23T22:57:24.597Z,14.24
2022-12-23T22:58:24.600Z,14.17
2022-12-23T22:59:24.592Z,13.88
2022-12-23T23:00:24.574Z,13.79
2022-12-23T23:01:24.556Z,14.13
2022-12-23T23:02:24.641Z,14.17
2022-12-23T23:03:24.520Z,14.19
2022-12-23T23:04:24.532Z,14.20
2022-12-23T23:05:24.553Z,13.77
2022-12-23T23:06:24.481Z,13.94
2022-12-23T23:07:24.519Z,14.20
2022-12-23T23:08:24.488Z,14.32
2022-12-23T23:09:24.461Z,14.28
2022-12-23T23:10:24.468Z,13.88
2022-12-23T23:11:24.446Z,13.83
2022-12-23T23:12:24.417Z,13.94
2022-12-23T23:13:24.399Z,14.10
2022-12-23T23:14:24.400Z,14.19
2022-12-23T23:15:24.381Z,14.24
2022-12-23T23:16:24.469Z,14.20
2022-12-23T23:17:24.390Z,13.92
2022-12-23T23:18:24.342Z,13.99
2022-12-23T23:19:24.364Z,14.20
2022-12-23T23:20:24.330Z,14.39
2022-12-23T23:21:24.346Z,14.43
2022-12-23T23:22:24.344Z,14.37
2022-12-23T23:23:24.308Z,14.43
2022-12-23T23:24:29.338Z,14.37
2022-12-23T23:25:25.282Z,13.94
2022-12-23T23:26:24.267Z,13.87
2022-12-23T23:27:24.233Z,14.07
2022-12-23T23:28:24.286Z,14.43
2022-12-23T23:29:24.226Z,14.27
2022-12-23T23:30:24.251Z,14.01
2022-12-23T23:31:42.419Z,13.80
2022-12-23T23:32:25.236Z,14.24
2022-12-23T23:33:24.165Z,14.42
2022-12-23T23:34:24.196Z,14.35
2022-12-23T23:35:24.145Z,14.19
2022-12-23T23:36:24.169Z,14.04
2022-12-23T23:37:24.144Z,14.12
2022-12-23T23:38:24.139Z,14.20
2022-12-23T23:39:24.124Z,14.12
2022-12-23T23:40:24.092Z,14.25
2022-12-23T23:41:24.331Z,14.25
2022-12-23T23:42:24.061Z,14.38
2022-12-23T23:43:24.078Z,14.53
2022-12-23T23:44:24.250Z,14.60
2022-12-23T23:45:24.084Z,14.57
2022-12-23T23:46:24.263Z,14.57
2022-12-23T23:47:24.077Z,14.52
2022-12-23T23:48:24.114Z,14.14
2022-12-23T23:49:24.021Z,14.28
2022-12-23T23:50:24.018Z,14.37
2022-12-23T23:51:24.011Z,14.37
2022-12-23T23:52:24.065Z,14.46
2022-12-23T23:53:23.944Z,14.21
2022-12-23T23:54:23.933Z,14.29
2022-12-23T23:55:23.911Z,14.19
2022-12-23T23:56:25.346Z,14.16
2022-12-23T23:57:23.919Z,14.19
2022-12-23T23:58:23.879Z,14.16
2022-12-23T23:59:23.877Z,14.14
